Elmswell, United Kingdom
Current Conditions -  °F | °C
As of 11:50 AM on Thursday 18 Dec 2014 (Local Time) from EGUW Reporting Station
Overcast Overcast  
Wind Chill: 13°   Ceiling: 1400
Heat Index: 13°   Visibility: 6mi
Dew Point: 11°   Wind: 21mph
Humidity: 88%   Direction: 230°SW
Pressure: 29.74"   Gusts: NA
Location:  52.24°N, 0.91°E
Report Text: EGUW 181150Z 23018KT 9999 OVC014 13/11 Q1007 GRN TEMPO BKN015 WHT
Loading
Personal Weather Stations






























Interactive Weather Map New forecast layout! Learn more

10-Day Weather Forecast

Advertisements
Track Severe Weather on mobile